sensor_id;sensor_type;location;lat;lon;timestamp;P1;durP1;ratioP1;P2;durP2;ratioP2
35418;SDS011;21525;41.240;16.500;2023-07-31T00:00:12;9.45;;;6.22;;
35418;SDS011;21525;41.240;16.500;2023-07-31T00:02:38;10.20;;;6.25;;
35418;SDS011;21525;41.240;16.500;2023-07-31T00:05:04;15.05;;;7.15;;
35418;SDS011;21525;41.240;16.500;2023-07-31T00:07:30;12.30;;;7.15;;
35418;SDS011;21525;41.240;16.500;2023-07-31T00:09:56;11.85;;;7.07;;
35418;SDS011;21525;41.240;16.500;2023-07-31T00:12:22;12.52;;;5.70;;
35418;SDS011;21525;41.240;16.500;2023-07-31T00:14:48;12.32;;;5.43;;
35418;SDS011;21525;41.240;16.500;2023-07-31T00:17:14;9.65;;;4.95;;
35418;SDS011;21525;41.240;16.500;2023-07-31T00:19:40;10.60;;;4.90;;
35418;SDS011;21525;41.240;16.500;2023-07-31T00:22:06;8.75;;;4.68;;
35418;SDS011;21525;41.240;16.500;2023-07-31T00:24:31;6.10;;;4.32;;
35418;SDS011;21525;41.240;16.500;2023-07-31T00:26:57;7.82;;;4.55;;
35418;SDS011;21525;41.240;16.500;2023-07-31T00:29:23;8.43;;;4.75;;
35418;SDS011;21525;41.240;16.500;2023-07-31T00:31:48;10.68;;;5.00;;
35418;SDS011;21525;41.240;16.500;2023-07-31T00:34:16;12.68;;;5.72;;
35418;SDS011;21525;41.240;16.500;2023-07-31T00:36:42;7.95;;;4.93;;
35418;SDS011;21525;41.240;16.500;2023-07-31T00:39:08;10.88;;;4.72;;
35418;SDS011;21525;41.240;16.500;2023-07-31T00:41:34;9.00;;;4.93;;
35418;SDS011;21525;41.240;16.500;2023-07-31T00:44:00;9.82;;;4.60;;
35418;SDS011;21525;41.240;16.500;2023-07-31T00:46:26;8.40;;;5.18;;
35418;SDS011;21525;41.240;16.500;2023-07-31T00:48:52;13.02;;;6.35;;
35418;SDS011;21525;41.240;16.500;2023-07-31T00:51:18;13.88;;;7.43;;
35418;SDS011;21525;41.240;16.500;2023-07-31T00:53:44;17.67;;;7.30;;
35418;SDS011;21525;41.240;16.500;2023-07-31T00:56:10;18.98;;;7.47;;
35418;SDS011;21525;41.240;16.500;2023-07-31T00:58:37;14.75;;;6.85;;
35418;SDS011;21525;41.240;16.500;2023-07-31T01:01:04;13.55;;;7.28;;
35418;SDS011;21525;41.240;16.500;2023-07-31T01:03:29;13.05;;;7.07;;
35418;SDS011;21525;41.240;16.500;2023-07-31T01:06:00;15.95;;;7.53;;
35418;SDS011;21525;41.240;16.500;2023-07-31T01:11:27;10.15;;;6.22;;
35418;SDS011;21525;41.240;16.500;2023-07-31T01:13:58;12.98;;;6.53;;
35418;SDS011;21525;41.240;16.500;2023-07-31T01:16:25;10.50;;;5.78;;
35418;SDS011;21525;41.240;16.500;2023-07-31T01:18:52;10.02;;;5.32;;
35418;SDS011;21525;41.240;16.500;2023-07-31T01:21:21;12.38;;;5.60;;
35418;SDS011;21525;41.240;16.500;2023-07-31T01:26:44;10.07;;;5.50;;
35418;SDS011;21525;41.240;16.500;2023-07-31T01:29:16;9.57;;;5.10;;
35418;SDS011;21525;41.240;16.500;2023-07-31T01:31:48;9.45;;;5.07;;
35418;SDS011;21525;41.240;16.500;2023-07-31T01:34:18;8.27;;;4.60;;
35418;SDS011;21525;41.240;16.500;2023-07-31T01:36:46;11.77;;;5.13;;
35418;SDS011;21525;41.240;16.500;2023-07-31T01:39:12;10.07;;;4.93;;
35418;SDS011;21525;41.240;16.500;2023-07-31T01:41:38;9.73;;;4.97;;
35418;SDS011;21525;41.240;16.500;2023-07-31T01:44:04;10.00;;;4.95;;
35418;SDS011;21525;41.240;16.500;2023-07-31T01:46:29;8.70;;;4.55;;
35418;SDS011;21525;41.240;16.500;2023-07-31T01:48:55;8.95;;;5.63;;
35418;SDS011;21525;41.240;16.500;2023-07-31T01:51:21;12.32;;;5.35;;
35418;SDS011;21525;41.240;16.500;2023-07-31T01:53:47;8.80;;;5.00;;
35418;SDS011;21525;41.240;16.500;2023-07-31T01:56:12;8.60;;;4.80;;
35418;SDS011;21525;41.240;16.500;2023-07-31T01:58:38;8.10;;;4.60;;
35418;SDS011;21525;41.240;16.500;2023-07-31T02:01:04;10.43;;;4.95;;
35418;SDS011;21525;41.240;16.500;2023-07-31T02:03:30;13.38;;;5.40;;
35418;SDS011;21525;41.240;16.500;2023-07-31T02:05:55;9.35;;;5.00;;
35418;SDS011;21525;41.240;16.500;2023-07-31T02:08:24;12.05;;;4.65;;
35418;SDS011;21525;41.240;16.500;2023-07-31T02:10:51;16.70;;;5.70;;
35418;SDS011;21525;41.240;16.500;2023-07-31T02:13:17;11.20;;;4.72;;
35418;SDS011;21525;41.240;16.500;2023-07-31T02:15:42;18.20;;;6.13;;
35418;SDS011;21525;41.240;16.500;2023-07-31T02:18:08;11.90;;;6.05;;
35418;SDS011;21525;41.240;16.500;2023-07-31T02:20:34;11.18;;;4.78;;
35418;SDS011;21525;41.240;16.500;2023-07-31T02:23:01;7.35;;;4.65;;
35418;SDS011;21525;41.240;16.500;2023-07-31T02:25:27;15.18;;;6.00;;
35418;SDS011;21525;41.240;16.500;2023-07-31T02:27:53;16.50;;;5.20;;
35418;SDS011;21525;41.240;16.500;2023-07-31T02:30:19;11.20;;;4.93;;
35418;SDS011;21525;41.240;16.500;2023-07-31T02:32:45;12.15;;;4.68;;
35418;SDS011;21525;41.240;16.500;2023-07-31T02:35:10;7.68;;;5.07;;
35418;SDS011;21525;41.240;16.500;2023-07-31T02:37:40;10.35;;;5.30;;
35418;SDS011;21525;41.240;16.500;2023-07-31T02:40:09;9.57;;;4.93;;
35418;SDS011;21525;41.240;16.500;2023-07-31T02:42:35;10.90;;;5.43;;
35418;SDS011;21525;41.240;16.500;2023-07-31T02:45:01;11.73;;;4.65;;
35418;SDS011;21525;41.240;16.500;2023-07-31T02:47:27;8.85;;;5.00;;
35418;SDS011;21525;41.240;16.500;2023-07-31T02:49:53;11.50;;;5.10;;
35418;SDS011;21525;41.240;16.500;2023-07-31T02:52:19;10.98;;;5.05;;
35418;SDS011;21525;41.240;16.500;2023-07-31T02:54:45;10.57;;;5.10;;
35418;SDS011;21525;41.240;16.500;2023-07-31T02:57:11;10.63;;;5.38;;
35418;SDS011;21525;41.240;16.500;2023-07-31T02:59:36;11.15;;;4.85;;
35418;SDS011;21525;41.240;16.500;2023-07-31T03:02:02;8.55;;;5.15;;
35418;SDS011;21525;41.240;16.500;2023-07-31T03:04:28;10.32;;;5.00;;
35418;SDS011;21525;41.240;16.500;2023-07-31T03:06:55;23.10;;;5.80;;
35418;SDS011;21525;41.240;16.500;2023-07-31T03:09:20;13.90;;;4.78;;
35418;SDS011;21525;41.240;16.500;2023-07-31T03:11:46;10.45;;;4.40;;
35418;SDS011;21525;41.240;16.500;2023-07-31T03:14:12;10.50;;;4.53;;
35418;SDS011;21525;41.240;16.500;2023-07-31T03:16:38;13.50;;;5.45;;
35418;SDS011;21525;41.240;16.500;2023-07-31T03:19:03;11.70;;;4.85;;
35418;SDS011;21525;41.240;16.500;2023-07-31T03:21:29;10.50;;;4.45;;
35418;SDS011;21525;41.240;16.500;2023-07-31T03:23:55;10.15;;;4.35;;
35418;SDS011;21525;41.240;16.500;2023-07-31T03:26:21;11.18;;;4.97;;
35418;SDS011;21525;41.240;16.500;2023-07-31T03:28:46;14.98;;;4.53;;
35418;SDS011;21525;41.240;16.500;2023-07-31T03:31:12;10.57;;;4.97;;
35418;SDS011;21525;41.240;16.500;2023-07-31T03:33:38;10.05;;;5.03;;
35418;SDS011;21525;41.240;16.500;2023-07-31T03:36:04;10.98;;;5.45;;
35418;SDS011;21525;41.240;16.500;2023-07-31T03:38:30;12.85;;;4.50;;
35418;SDS011;21525;41.240;16.500;2023-07-31T03:40:55;15.77;;;4.88;;
35418;SDS011;21525;41.240;16.500;2023-07-31T03:43:21;13.63;;;5.15;;
35418;SDS011;21525;41.240;16.500;2023-07-31T03:45:47;14.60;;;5.38;;
35418;SDS011;21525;41.240;16.500;2023-07-31T03:48:13;16.77;;;5.22;;
35418;SDS011;21525;41.240;16.500;2023-07-31T03:50:39;12.98;;;5.18;;
35418;SDS011;21525;41.240;16.500;2023-07-31T03:53:05;14.75;;;4.75;;
35418;SDS011;21525;41.240;16.500;2023-07-31T03:55:31;16.33;;;5.00;;
35418;SDS011;21525;41.240;16.500;2023-07-31T03:57:57;21.95;;;5.50;;
35418;SDS011;21525;41.240;16.500;2023-07-31T04:00:22;17.63;;;5.28;;
35418;SDS011;21525;41.240;16.500;2023-07-31T04:02:49;19.52;;;5.60;;
35418;SDS011;21525;41.240;16.500;2023-07-31T04:05:15;17.45;;;4.80;;
35418;SDS011;21525;41.240;16.500;2023-07-31T04:07:41;19.20;;;5.25;;
35418;SDS011;21525;41.240;16.500;2023-07-31T04:10:06;19.35;;;4.93;;
35418;SDS011;21525;41.240;16.500;2023-07-31T04:12:32;20.25;;;5.35;;
35418;SDS011;21525;41.240;16.500;2023-07-31T04:14:58;18.67;;;5.53;;
35418;SDS011;21525;41.240;16.500;2023-07-31T04:17:24;19.33;;;5.45;;
35418;SDS011;21525;41.240;16.500;2023-07-31T04:19:49;15.10;;;5.47;;
35418;SDS011;21525;41.240;16.500;2023-07-31T04:22:15;31.02;;;5.03;;
35418;SDS011;21525;41.240;16.500;2023-07-31T04:24:41;17.90;;;5.57;;
35418;SDS011;21525;41.240;16.500;2023-07-31T04:27:08;17.00;;;4.85;;
35418;SDS011;21525;41.240;16.500;2023-07-31T04:29:34;22.98;;;4.60;;
35418;SDS011;21525;41.240;16.500;2023-07-31T04:32:00;18.08;;;4.20;;
35418;SDS011;21525;41.240;16.500;2023-07-31T04:34:25;17.27;;;5.68;;
35418;SDS011;21525;41.240;16.500;2023-07-31T04:36:51;23.05;;;5.55;;
35418;SDS011;21525;41.240;16.500;2023-07-31T04:39:17;14.77;;;5.50;;
35418;SDS011;21525;41.240;16.500;2023-07-31T04:41:42;16.80;;;4.97;;
35418;SDS011;21525;41.240;16.500;2023-07-31T04:44:08;16.08;;;5.55;;
35418;SDS011;21525;41.240;16.500;2023-07-31T04:46:36;22.83;;;5.35;;
35418;SDS011;21525;41.240;16.500;2023-07-31T04:49:02;25.13;;;5.45;;
35418;SDS011;21525;41.240;16.500;2023-07-31T04:51:28;19.85;;;5.47;;
35418;SDS011;21525;41.240;16.500;2023-07-31T04:53:54;19.17;;;5.72;;
35418;SDS011;21525;41.240;16.500;2023-07-31T04:56:19;22.25;;;7.15;;
35418;SDS011;21525;41.240;16.500;2023-07-31T04:58:45;21.63;;;6.78;;
35418;SDS011;21525;41.240;16.500;2023-07-31T05:01:11;17.25;;;7.13;;
35418;SDS011;21525;41.240;16.500;2023-07-31T05:03:37;28.52;;;7.22;;
35418;SDS011;21525;41.240;16.500;2023-07-31T05:06:02;19.77;;;6.78;;
35418;SDS011;21525;41.240;16.500;2023-07-31T05:08:28;18.13;;;6.28;;
35418;SDS011;21525;41.240;16.500;2023-07-31T05:10:54;22.17;;;6.85;;
35418;SDS011;21525;41.240;16.500;2023-07-31T05:13:20;26.67;;;6.88;;
35418;SDS011;21525;41.240;16.500;2023-07-31T05:15:46;30.85;;;7.28;;
35418;SDS011;21525;41.240;16.500;2023-07-31T05:18:14;25.88;;;7.50;;
35418;SDS011;21525;41.240;16.500;2023-07-31T05:20:40;20.35;;;5.55;;
35418;SDS011;21525;41.240;16.500;2023-07-31T05:23:06;25.23;;;5.93;;
35418;SDS011;21525;41.240;16.500;2023-07-31T05:25:32;17.02;;;5.78;;
35418;SDS011;21525;41.240;16.500;2023-07-31T05:27:58;23.75;;;6.38;;
35418;SDS011;21525;41.240;16.500;2023-07-31T05:30:24;26.77;;;6.38;;
35418;SDS011;21525;41.240;16.500;2023-07-31T05:32:49;25.33;;;6.13;;
35418;SDS011;21525;41.240;16.500;2023-07-31T05:35:15;24.02;;;5.95;;
35418;SDS011;21525;41.240;16.500;2023-07-31T05:37:41;21.23;;;5.80;;
35418;SDS011;21525;41.240;16.500;2023-07-31T05:40:07;24.75;;;5.95;;
35418;SDS011;21525;41.240;16.500;2023-07-31T05:42:33;24.17;;;6.63;;
35418;SDS011;21525;41.240;16.500;2023-07-31T05:44:59;23.15;;;6.05;;
35418;SDS011;21525;41.240;16.500;2023-07-31T05:47:27;14.40;;;5.72;;
35418;SDS011;21525;41.240;16.500;2023-07-31T05:49:52;16.73;;;5.82;;
35418;SDS011;21525;41.240;16.500;2023-07-31T05:52:18;16.52;;;5.13;;
35418;SDS011;21525;41.240;16.500;2023-07-31T05:54:44;16.52;;;5.00;;
35418;SDS011;21525;41.240;16.500;2023-07-31T05:57:11;11.82;;;4.50;;
35418;SDS011;21525;41.240;16.500;2023-07-31T05:59:37;19.65;;;6.70;;
35418;SDS011;21525;41.240;16.500;2023-07-31T06:02:02;11.05;;;4.82;;
35418;SDS011;21525;41.240;16.500;2023-07-31T06:04:28;8.98;;;4.70;;
35418;SDS011;21525;41.240;16.500;2023-07-31T06:06:54;15.27;;;5.20;;
35418;SDS011;21525;41.240;16.500;2023-07-31T06:09:20;10.65;;;4.85;;
35418;SDS011;21525;41.240;16.500;2023-07-31T06:11:45;13.98;;;4.78;;
35418;SDS011;21525;41.240;16.500;2023-07-31T06:14:11;11.85;;;4.80;;
35418;SDS011;21525;41.240;16.500;2023-07-31T06:16:37;16.08;;;5.25;;
35418;SDS011;21525;41.240;16.500;2023-07-31T06:19:03;19.70;;;5.40;;
35418;SDS011;21525;41.240;16.500;2023-07-31T06:21:29;12.40;;;5.13;;
35418;SDS011;21525;41.240;16.500;2023-07-31T06:23:55;17.38;;;5.40;;
35418;SDS011;21525;41.240;16.500;2023-07-31T06:26:21;15.77;;;6.18;;
35418;SDS011;21525;41.240;16.500;2023-07-31T06:28:46;15.85;;;5.55;;
35418;SDS011;21525;41.240;16.500;2023-07-31T06:31:12;24.38;;;5.97;;
35418;SDS011;21525;41.240;16.500;2023-07-31T06:33:38;19.67;;;5.68;;
35418;SDS011;21525;41.240;16.500;2023-07-31T06:36:03;19.45;;;5.80;;
35418;SDS011;21525;41.240;16.500;2023-07-31T06:38:29;14.02;;;5.85;;
35418;SDS011;21525;41.240;16.500;2023-07-31T06:40:55;16.60;;;5.15;;
35418;SDS011;21525;41.240;16.500;2023-07-31T06:43:21;13.73;;;4.80;;
35418;SDS011;21525;41.240;16.500;2023-07-31T06:45:47;12.07;;;5.75;;
35418;SDS011;21525;41.240;16.500;2023-07-31T06:48:15;16.13;;;6.70;;
35418;SDS011;21525;41.240;16.500;2023-07-31T06:50:41;14.00;;;5.70;;
35418;SDS011;21525;41.240;16.500;2023-07-31T06:53:07;11.88;;;6.00;;
35418;SDS011;21525;41.240;16.500;2023-07-31T06:55:33;13.52;;;5.65;;
35418;SDS011;21525;41.240;16.500;2023-07-31T06:57:58;18.67;;;5.80;;
35418;SDS011;21525;41.240;16.500;2023-07-31T07:00:24;14.55;;;5.82;;
35418;SDS011;21525;41.240;16.500;2023-07-31T07:02:50;14.50;;;5.60;;
35418;SDS011;21525;41.240;16.500;2023-07-31T07:05:16;12.65;;;4.80;;
35418;SDS011;21525;41.240;16.500;2023-07-31T07:07:42;13.07;;;5.00;;
35418;SDS011;21525;41.240;16.500;2023-07-31T07:10:09;14.02;;;5.68;;
35418;SDS011;21525;41.240;16.500;2023-07-31T07:12:35;14.23;;;5.78;;
35418;SDS011;21525;41.240;16.500;2023-07-31T07:15:01;16.00;;;6.28;;
35418;SDS011;21525;41.240;16.500;2023-07-31T07:17:30;13.27;;;5.13;;
35418;SDS011;21525;41.240;16.500;2023-07-31T07:19:59;10.70;;;5.65;;
35418;SDS011;21525;41.240;16.500;2023-07-31T07:22:26;12.82;;;6.20;;
35418;SDS011;21525;41.240;16.500;2023-07-31T07:24:52;14.73;;;6.13;;
35418;SDS011;21525;41.240;16.500;2023-07-31T07:27:19;14.13;;;5.68;;
35418;SDS011;21525;41.240;16.500;2023-07-31T07:29:45;12.23;;;5.30;;
35418;SDS011;21525;41.240;16.500;2023-07-31T07:32:12;9.05;;;5.22;;
35418;SDS011;21525;41.240;16.500;2023-07-31T07:34:38;13.18;;;6.07;;
35418;SDS011;21525;41.240;16.500;2023-07-31T07:37:03;10.48;;;6.68;;
35418;SDS011;21525;41.240;16.500;2023-07-31T07:39:29;13.88;;;5.50;;
35418;SDS011;21525;41.240;16.500;2023-07-31T07:41:55;10.93;;;6.82;;
35418;SDS011;21525;41.240;16.500;2023-07-31T07:44:21;13.10;;;5.40;;
35418;SDS011;21525;41.240;16.500;2023-07-31T07:46:47;13.02;;;6.40;;
35418;SDS011;21525;41.240;16.500;2023-07-31T07:49:12;12.93;;;5.90;;
35418;SDS011;21525;41.240;16.500;2023-07-31T07:51:38;12.52;;;5.78;;
35418;SDS011;21525;41.240;16.500;2023-07-31T07:54:04;9.60;;;4.85;;
35418;SDS011;21525;41.240;16.500;2023-07-31T07:56:29;10.98;;;5.15;;
35418;SDS011;21525;41.240;16.500;2023-07-31T07:58:55;10.60;;;4.95;;
35418;SDS011;21525;41.240;16.500;2023-07-31T08:01:21;14.88;;;4.47;;
35418;SDS011;21525;41.240;16.500;2023-07-31T08:03:47;10.45;;;5.05;;
35418;SDS011;21525;41.240;16.500;2023-07-31T08:06:14;8.68;;;5.10;;
35418;SDS011;21525;41.240;16.500;2023-07-31T08:08:39;8.75;;;5.03;;
35418;SDS011;21525;41.240;16.500;2023-07-31T08:11:05;14.07;;;5.43;;
35418;SDS011;21525;41.240;16.500;2023-07-31T08:13:31;11.73;;;5.63;;
35418;SDS011;21525;41.240;16.500;2023-07-31T08:15:57;10.40;;;6.50;;
35418;SDS011;21525;41.240;16.500;2023-07-31T08:18:23;14.55;;;5.60;;
35418;SDS011;21525;41.240;16.500;2023-07-31T08:20:49;10.90;;;5.22;;
35418;SDS011;21525;41.240;16.500;2023-07-31T08:23:14;14.80;;;5.45;;
35418;SDS011;21525;41.240;16.500;2023-07-31T08:25:40;7.45;;;5.25;;
35418;SDS011;21525;41.240;16.500;2023-07-31T08:28:06;14.93;;;7.82;;
35418;SDS011;21525;41.240;16.500;2023-07-31T08:30:32;11.02;;;5.18;;
35418;SDS011;21525;41.240;16.500;2023-07-31T08:33:01;10.70;;;5.40;;
35418;SDS011;21525;41.240;16.500;2023-07-31T08:35:26;10.52;;;5.50;;
35418;SDS011;21525;41.240;16.500;2023-07-31T08:37:53;11.45;;;5.97;;
35418;SDS011;21525;41.240;16.500;2023-07-31T08:40:20;15.30;;;5.82;;
35418;SDS011;21525;41.240;16.500;2023-07-31T08:42:47;14.65;;;5.07;;
35418;SDS011;21525;41.240;16.500;2023-07-31T08:45:17;10.40;;;5.70;;
35418;SDS011;21525;41.240;16.500;2023-07-31T08:47:44;11.65;;;6.13;;
35418;SDS011;21525;41.240;16.500;2023-07-31T08:50:15;11.30;;;5.78;;
35418;SDS011;21525;41.240;16.500;2023-07-31T08:52:41;11.07;;;5.88;;
35418;SDS011;21525;41.240;16.500;2023-07-31T08:55:07;8.45;;;5.68;;
35418;SDS011;21525;41.240;16.500;2023-07-31T08:57:34;11.15;;;6.22;;
35418;SDS011;21525;41.240;16.500;2023-07-31T09:00:01;10.67;;;5.97;;
35418;SDS011;21525;41.240;16.500;2023-07-31T09:02:30;10.73;;;4.50;;
35418;SDS011;21525;41.240;16.500;2023-07-31T09:05:03;9.35;;;4.88;;
35418;SDS011;21525;41.240;16.500;2023-07-31T09:07:31;8.52;;;3.78;;
35418;SDS011;21525;41.240;16.500;2023-07-31T09:09:58;10.40;;;3.73;;
35418;SDS011;21525;41.240;16.500;2023-07-31T09:12:25;5.90;;;3.70;;
35418;SDS011;21525;41.240;16.500;2023-07-31T09:14:51;10.13;;;4.70;;
35418;SDS011;21525;41.240;16.500;2023-07-31T09:17:28;9.68;;;3.70;;
35418;SDS011;21525;41.240;16.500;2023-07-31T09:19:57;4.85;;;3.30;;
35418;SDS011;21525;41.240;16.500;2023-07-31T09:22:34;8.43;;;3.95;;
35418;SDS011;21525;41.240;16.500;2023-07-31T09:30:19;7.53;;;3.63;;
35418;SDS011;21525;41.240;16.500;2023-07-31T09:32:46;6.00;;;3.90;;
35418;SDS011;21525;41.240;16.500;2023-07-31T09:35:18;10.80;;;3.80;;
35418;SDS011;21525;41.240;16.500;2023-07-31T09:37:51;7.75;;;3.75;;
35418;SDS011;21525;41.240;16.500;2023-07-31T09:40:25;8.07;;;3.97;;
35418;SDS011;21525;41.240;16.500;2023-07-31T09:43:01;8.90;;;3.47;;
35418;SDS011;21525;41.240;16.500;2023-07-31T09:45:39;6.85;;;4.03;;
35418;SDS011;21525;41.240;16.500;2023-07-31T09:48:07;7.78;;;3.80;;
35418;SDS011;21525;41.240;16.500;2023-07-31T09:50:36;9.73;;;4.53;;
35418;SDS011;21525;41.240;16.500;2023-07-31T09:53:07;8.93;;;3.92;;
35418;SDS011;21525;41.240;16.500;2023-07-31T09:55:34;8.50;;;4.00;;
35418;SDS011;21525;41.240;16.500;2023-07-31T09:58:08;7.93;;;4.20;;
35418;SDS011;21525;41.240;16.500;2023-07-31T10:00:35;9.20;;;4.68;;
35418;SDS011;21525;41.240;16.500;2023-07-31T10:03:04;11.82;;;4.40;;
35418;SDS011;21525;41.240;16.500;2023-07-31T10:05:35;9.35;;;3.45;;
35418;SDS011;21525;41.240;16.500;2023-07-31T10:08:06;7.15;;;3.75;;
35418;SDS011;21525;41.240;16.500;2023-07-31T10:13:01;7.75;;;3.30;;
35418;SDS011;21525;41.240;16.500;2023-07-31T10:15:28;10.32;;;4.25;;
35418;SDS011;21525;41.240;16.500;2023-07-31T10:17:55;8.15;;;3.40;;
35418;SDS011;21525;41.240;16.500;2023-07-31T10:20:23;7.55;;;3.30;;
35418;SDS011;21525;41.240;16.500;2023-07-31T10:22:50;5.95;;;3.47;;
35418;SDS011;21525;41.240;16.500;2023-07-31T10:25:17;10.05;;;4.07;;
35418;SDS011;21525;41.240;16.500;2023-07-31T10:27:45;8.93;;;3.75;;
35418;SDS011;21525;41.240;16.500;2023-07-31T10:30:14;10.33;;;3.50;;
35418;SDS011;21525;41.240;16.500;2023-07-31T10:32:42;6.07;;;3.70;;
35418;SDS011;21525;41.240;16.500;2023-07-31T10:35:09;7.88;;;3.60;;
35418;SDS011;21525;41.240;16.500;2023-07-31T10:37:37;6.13;;;3.55;;
35418;SDS011;21525;41.240;16.500;2023-07-31T10:40:05;8.52;;;3.70;;
35418;SDS011;21525;41.240;16.500;2023-07-31T10:42:36;7.10;;;3.30;;
35418;SDS011;21525;41.240;16.500;2023-07-31T10:45:05;5.40;;;3.40;;
35418;SDS011;21525;41.240;16.500;2023-07-31T10:47:50;9.00;;;3.70;;
35418;SDS011;21525;41.240;16.500;2023-07-31T10:50:27;6.38;;;3.50;;
35418;SDS011;21525;41.240;16.500;2023-07-31T10:52:55;8.13;;;4.00;;
35418;SDS011;21525;41.240;16.500;2023-07-31T10:55:24;8.80;;;3.70;;
35418;SDS011;21525;41.240;16.500;2023-07-31T10:58:07;7.10;;;4.40;;
35418;SDS011;21525;41.240;16.500;2023-07-31T11:00:38;9.73;;;4.00;;
35418;SDS011;21525;41.240;16.500;2023-07-31T11:03:12;9.73;;;4.30;;
35418;SDS011;21525;41.240;16.500;2023-07-31T11:08:26;7.80;;;3.95;;
35418;SDS011;21525;41.240;16.500;2023-07-31T11:15:52;6.22;;;3.80;;
35418;SDS011;21525;41.240;16.500;2023-07-31T11:18:18;6.47;;;3.80;;
35418;SDS011;21525;41.240;16.500;2023-07-31T11:20:44;8.32;;;3.80;;
35418;SDS011;21525;41.240;16.500;2023-07-31T11:23:10;9.38;;;4.18;;
35418;SDS011;21525;41.240;16.500;2023-07-31T11:25:36;6.95;;;3.97;;
35418;SDS011;21525;41.240;16.500;2023-07-31T11:28:06;6.53;;;3.90;;
35418;SDS011;21525;41.240;16.500;2023-07-31T11:30:33;8.07;;;3.95;;
35418;SDS011;21525;41.240;16.500;2023-07-31T11:33:01;8.57;;;3.85;;
35418;SDS011;21525;41.240;16.500;2023-07-31T11:35:34;8.07;;;4.07;;
35418;SDS011;21525;41.240;16.500;2023-07-31T11:38:01;9.88;;;4.30;;
35418;SDS011;21525;41.240;16.500;2023-07-31T11:40:28;8.20;;;3.92;;
35418;SDS011;21525;41.240;16.500;2023-07-31T11:42:58;6.22;;;4.50;;
35418;SDS011;21525;41.240;16.500;2023-07-31T11:45:25;7.30;;;4.20;;
35418;SDS011;21525;41.240;16.500;2023-07-31T11:47:55;6.95;;;3.97;;
35418;SDS011;21525;41.240;16.500;2023-07-31T11:50:22;10.63;;;4.55;;
35418;SDS011;21525;41.240;16.500;2023-07-31T11:52:54;7.53;;;3.90;;
35418;SDS011;21525;41.240;16.500;2023-07-31T11:55:24;6.10;;;3.97;;
35418;SDS011;21525;41.240;16.500;2023-07-31T11:57:51;8.32;;;4.28;;
35418;SDS011;21525;41.240;16.500;2023-07-31T12:00:19;7.28;;;4.25;;
35418;SDS011;21525;41.240;16.500;2023-07-31T12:02:45;9.82;;;4.63;;
35418;SDS011;21525;41.240;16.500;2023-07-31T12:05:12;7.78;;;4.50;;
35418;SDS011;21525;41.240;16.500;2023-07-31T12:07:52;10.40;;;4.50;;
35418;SDS011;21525;41.240;16.500;2023-07-31T12:10:31;7.88;;;4.10;;
35418;SDS011;21525;41.240;16.500;2023-07-31T12:12:58;7.15;;;3.85;;
35418;SDS011;21525;41.240;16.500;2023-07-31T12:18:12;6.03;;;3.75;;
35418;SDS011;21525;41.240;16.500;2023-07-31T12:20:43;10.38;;;4.72;;
35418;SDS011;21525;41.240;16.500;2023-07-31T12:23:17;6.68;;;4.22;;
35418;SDS011;21525;41.240;16.500;2023-07-31T12:26:12;7.88;;;4.05;;
35418;SDS011;21525;41.240;16.500;2023-07-31T12:31:11;6.80;;;4.53;;
35418;SDS011;21525;41.240;16.500;2023-07-31T12:33:38;9.95;;;4.40;;
35418;SDS011;21525;41.240;16.500;2023-07-31T12:36:15;8.57;;;4.60;;
35418;SDS011;21525;41.240;16.500;2023-07-31T12:38:46;9.13;;;4.32;;
35418;SDS011;21525;41.240;16.500;2023-07-31T12:41:12;6.57;;;4.25;;
35418;SDS011;21525;41.240;16.500;2023-07-31T12:43:39;10.32;;;4.35;;
35418;SDS011;21525;41.240;16.500;2023-07-31T12:46:06;7.77;;;4.30;;
35418;SDS011;21525;41.240;16.500;2023-07-31T12:48:33;6.07;;;4.43;;
35418;SDS011;21525;41.240;16.500;2023-07-31T12:50:59;6.65;;;4.38;;
35418;SDS011;21525;41.240;16.500;2023-07-31T12:53:25;5.72;;;4.00;;
35418;SDS011;21525;41.240;16.500;2023-07-31T12:55:51;8.68;;;3.95;;
35418;SDS011;21525;41.240;16.500;2023-07-31T12:58:17;7.60;;;4.28;;
35418;SDS011;21525;41.240;16.500;2023-07-31T13:00:43;7.85;;;4.45;;
35418;SDS011;21525;41.240;16.500;2023-07-31T13:03:08;8.52;;;4.82;;
35418;SDS011;21525;41.240;16.500;2023-07-31T13:05:34;9.43;;;4.28;;
35418;SDS011;21525;41.240;16.500;2023-07-31T13:08:00;8.23;;;4.20;;
35418;SDS011;21525;41.240;16.500;2023-07-31T13:10:26;6.43;;;4.47;;
35418;SDS011;21525;41.240;16.500;2023-07-31T13:12:54;6.65;;;4.28;;
35418;SDS011;21525;41.240;16.500;2023-07-31T13:15:20;6.78;;;4.32;;
35418;SDS011;21525;41.240;16.500;2023-07-31T13:17:45;8.98;;;4.90;;
35418;SDS011;21525;41.240;16.500;2023-07-31T13:20:11;6.68;;;4.32;;
35418;SDS011;21525;41.240;16.500;2023-07-31T13:22:37;8.55;;;4.70;;
35418;SDS011;21525;41.240;16.500;2023-07-31T13:25:04;5.68;;;4.53;;
35418;SDS011;21525;41.240;16.500;2023-07-31T13:27:30;5.97;;;4.38;;
35418;SDS011;21525;41.240;16.500;2023-07-31T13:29:56;6.65;;;4.85;;
35418;SDS011;21525;41.240;16.500;2023-07-31T13:32:22;6.30;;;4.72;;
35418;SDS011;21525;41.240;16.500;2023-07-31T13:34:48;6.35;;;4.82;;
35418;SDS011;21525;41.240;16.500;2023-07-31T13:37:15;7.03;;;5.18;;
35418;SDS011;21525;41.240;16.500;2023-07-31T13:39:41;7.45;;;5.03;;
35418;SDS011;21525;41.240;16.500;2023-07-31T13:42:07;8.30;;;5.00;;
35418;SDS011;21525;41.240;16.500;2023-07-31T13:44:37;8.15;;;4.78;;
35418;SDS011;21525;41.240;16.500;2023-07-31T13:47:05;6.53;;;4.45;;
35418;SDS011;21525;41.240;16.500;2023-07-31T13:49:32;6.82;;;5.30;;
35418;SDS011;21525;41.240;16.500;2023-07-31T13:51:57;7.00;;;4.88;;
35418;SDS011;21525;41.240;16.500;2023-07-31T13:54:23;9.63;;;5.38;;
35418;SDS011;21525;41.240;16.500;2023-07-31T13:56:51;6.13;;;4.90;;
35418;SDS011;21525;41.240;16.500;2023-07-31T13:59:17;5.78;;;4.88;;
35418;SDS011;21525;41.240;16.500;2023-07-31T14:01:43;6.15;;;5.32;;
35418;SDS011;21525;41.240;16.500;2023-07-31T14:04:10;5.97;;;5.00;;
35418;SDS011;21525;41.240;16.500;2023-07-31T14:06:36;6.97;;;5.07;;
35418;SDS011;21525;41.240;16.500;2023-07-31T14:09:02;8.60;;;5.45;;
35418;SDS011;21525;41.240;16.500;2023-07-31T14:11:28;8.50;;;5.38;;
35418;SDS011;21525;41.240;16.500;2023-07-31T14:13:54;7.00;;;5.40;;
35418;SDS011;21525;41.240;16.500;2023-07-31T14:16:21;8.25;;;5.47;;
35418;SDS011;21525;41.240;16.500;2023-07-31T14:18:47;7.53;;;6.15;;
35418;SDS011;21525;41.240;16.500;2023-07-31T14:21:13;6.95;;;5.28;;
35418;SDS011;21525;41.240;16.500;2023-07-31T14:23:39;6.45;;;5.20;;
35418;SDS011;21525;41.240;16.500;2023-07-31T14:26:05;5.85;;;5.20;;
35418;SDS011;21525;41.240;16.500;2023-07-31T14:28:31;7.40;;;4.85;;
35418;SDS011;21525;41.240;16.500;2023-07-31T14:30:57;5.13;;;4.22;;
35418;SDS011;21525;41.240;16.500;2023-07-31T14:33:23;6.40;;;5.10;;
35418;SDS011;21525;41.240;16.500;2023-07-31T14:35:49;5.82;;;4.28;;
35418;SDS011;21525;41.240;16.500;2023-07-31T14:38:15;5.97;;;4.35;;
35418;SDS011;21525;41.240;16.500;2023-07-31T14:40:41;6.95;;;4.80;;
35418;SDS011;21525;41.240;16.500;2023-07-31T14:43:07;6.57;;;4.75;;
35418;SDS011;21525;41.240;16.500;2023-07-31T14:45:32;6.47;;;5.20;;
35418;SDS011;21525;41.240;16.500;2023-07-31T14:47:58;6.97;;;4.68;;
35418;SDS011;21525;41.240;16.500;2023-07-31T14:50:25;6.30;;;5.18;;